Time;durP1;ratioP1;P1;durP2;ratioP2;P2;SDS_P1;SDS_P2;PMS_P1;PMS_P2;Temp;Humidity;BMP_temperature;BMP_pressure;BME280_temperature;BME280_humidity;BME280_pressure;Samples;Min_cycle;Max_cycle;Signal;HPM_P1;HPM_P2
2023/01/16 00:04:35;;;;;;;235.85;31.58;;;;;;;1.19;100.00;101117.59;10333548;28;20042;-78
2023/01/16 00:09:36;;;;;;;413.92;36.15;;;;;;;1.31;100.00;101126.50;10332854;28;20541;-78
2023/01/16 00:14:36;;;;;;;390.13;33.70;;;;;;;1.02;100.00;101076.72;10333081;28;20038;-78
2023/01/16 00:19:37;;;;;;;354.83;33.50;;;;;;;1.56;100.00;101159.97;10333240;28;20101;-78
2023/01/16 00:24:38;;;;;;;258.35;35.72;;;;;;;1.68;100.00;101174.97;10333237;28;20071;-79
2023/01/16 00:29:39;;;;;;;191.38;32.78;;;;;;;1.86;100.00;101208.88;10333193;28;20161;-76
2023/01/16 00:34:39;;;;;;;361.42;34.55;;;;;;;1.13;100.00;101089.16;10331682;28;20046;-76
2023/01/16 00:39:40;;;;;;;332.65;33.30;;;;;;;1.24;100.00;101106.88;10332667;28;20050;-76
2023/01/16 00:44:41;;;;;;;203.45;32.35;;;;;;;1.31;100.00;101110.81;10332154;28;20068;-77
2023/01/16 00:49:42;;;;;;;168.43;29.75;;;;;;;1.08;100.00;101063.28;10332348;28;20054;-76
2023/01/16 00:54:42;;;;;;;351.90;34.85;;;;;;;1.24;100.00;101088.53;10331071;28;20093;-76
2023/01/16 00:59:43;;;;;;;283.52;33.00;;;;;;;1.66;100.00;101171.56;10331330;28;20133;-77
2023/01/16 01:04:44;;;;;;;376.45;33.38;;;;;;;0.91;100.00;101048.53;10330921;28;20042;-77
2023/01/16 01:09:45;;;;;;;200.32;31.73;;;;;;;1.87;100.00;101194.81;10331537;28;20082;-77
2023/01/16 01:14:45;;;;;;;290.27;33.38;;;;;;;1.93;100.00;101207.56;10331935;28;20465;-76
2023/01/16 01:19:46;;;;;;;457.60;35.05;;;;;;;0.84;100.00;101030.69;10331540;28;20117;-77
2023/01/16 01:24:48;;;;;;;173.27;31.02;;;;;;;1.08;100.00;101068.50;10331312;28;20042;-77
2023/01/16 01:29:49;;;;;;;114.97;28.17;;;;;;;1.49;100.00;101133.28;10335257;28;20084;-76
2023/01/16 01:34:50;;;;;;;411.65;35.47;;;;;;;1.92;100.00;101192.78;10338275;28;20095;-77
2023/01/16 01:39:50;;;;;;;168.82;30.75;;;;;;;0.32;100.00;100940.38;10338238;28;20161;-77
2023/01/16 01:45:01;;;;;;;205.35;30.48;;;;;;;1.97;100.00;101198.56;10338038;28;20512;-77
2023/01/16 01:50:12;;;;;;;629.22;39.60;;;;;;;1.28;100.00;101080.41;10338856;28;20180;-77
2023/01/16 01:55:14;;;;;;;238.73;32.90;;;;;;;1.73;100.00;101157.19;10333483;28;20046;-77
2023/01/16 02:00:19;;;;;;;356.13;33.63;;;;;;;1.74;100.00;101163.28;10296437;28;20057;-77
2023/01/16 02:05:25;;;;;;;178.65;31.88;;;;;;;1.37;100.00;101099.97;10329350;28;20070;-77
2023/01/16 02:10:32;;;;;;;419.33;37.30;;;;;;;2.01;100.00;101208.78;10326739;28;20051;-76
2023/01/16 02:15:34;;;;;;;359.77;35.55;;;;;;;1.34;100.00;101095.75;10337445;28;20046;-76
2023/01/16 02:21:02;;;;;;;267.98;34.35;;;;;;;1.69;100.00;101131.28;10336568;28;20046;-76
2023/01/16 02:26:40;;;;;;;191.05;33.65;;;;;;;2.07;100.00;101201.50;10337340;28;20054;-76
2023/01/16 02:32:16;;;;;;;201.73;32.28;;;;;;;1.37;100.00;101087.72;10335385;28;20069;-76
2023/01/16 02:37:30;;;;;;;175.45;30.55;;;;;;;2.13;100.00;101216.88;10335944;28;20050;-76
2023/01/16 02:42:59;;;;;;;181.10;33.17;;;;;;;1.45;100.00;101095.13;10329783;28;20042;-77
2023/01/16 02:48:26;;;;;;;262.88;29.90;;;;;;;2.21;100.00;101210.19;10296244;28;20069;-77
2023/01/16 02:53:52;;;;;;;101.80;22.90;;;;;;;2.24;100.00;101209.16;10301350;28;20042;-79
2023/01/16 02:58:53;;;;;;;85.43;21.42;;;;;;;2.08;100.00;101185.66;10296759;28;20487;-76
2023/01/16 03:03:54;;;;;;;71.80;20.27;;;;;;;2.18;100.00;101207.75;10294531;28;20049;-76
2023/01/16 03:09:23;;;;;;;78.55;17.95;;;;;;;2.12;100.00;101225.63;10294617;28;20050;-76
2023/01/16 03:14:44;;;;;;;67.35;15.95;;;;;;;2.03;100.00;101211.31;10280523;28;20108;-77
2023/01/16 03:19:53;;;;;;;61.03;14.55;;;;;;;1.98;100.00;101210.75;10375996;28;20046;-80
2023/01/16 03:25:02;;;;;;;44.03;14.52;;;;;;;1.95;100.00;101218.81;10374889;28;20401;-77
2023/01/16 03:30:45;;;;;;;46.45;14.25;;;;;;;1.48;100.00;101123.75;10372360;28;20203;-77
2023/01/16 03:36:03;;;;;;;60.05;14.82;;;;;;;1.96;100.00;101205.59;10371396;28;20056;-80
2023/01/16 03:41:08;;;;;;;46.15;14.65;;;;;;;1.99;100.00;101205.41;10372019;28;20048;-81
2023/01/16 03:46:17;;;;;;;67.03;14.73;;;;;;;2.03;100.00;101206.94;10372301;28;20060;-78
2023/01/16 03:51:22;;;;;;;62.15;13.68;;;;;;;1.89;100.00;101177.25;10371107;28;20048;-77
2023/01/16 03:56:32;;;;;;;61.65;12.93;;;;;;;1.09;100.00;101058.88;10372272;28;20498;-79
2023/01/16 04:01:49;;;;;;;45.17;13.43;;;;;;;1.04;100.00;101063.53;10371903;28;20049;-78
2023/01/16 04:06:59;;;;;;;36.33;12.35;;;;;;;1.34;100.00;101113.25;10370763;28;20096;-79
2023/01/16 04:12:03;;;;;;;38.05;13.32;;;;;;;1.17;100.00;101092.44;10371066;28;20045;-83
2023/01/16 04:17:05;;;;;;;31.33;12.02;;;;;;;1.56;100.00;101166.03;10371283;28;20037;-79
2023/01/16 04:22:07;;;;;;;35.15;13.15;;;;;;;1.65;100.00;101169.06;10371815;28;20053;-78
2023/01/16 04:27:08;;;;;;;28.85;12.15;;;;;;;1.46;100.00;101138.69;10370916;28;20513;-75
2023/01/16 04:32:09;;;;;;;35.72;12.77;;;;;;;1.51;100.00;101144.50;10370219;28;20052;-77
2023/01/16 04:37:14;;;;;;;27.92;11.35;;;;;;;1.35;100.00;101112.31;10371175;28;20046;-79
2023/01/16 04:42:15;;;;;;;36.92;12.73;;;;;;;1.83;100.00;101194.16;10330079;28;20445;-76
2023/01/16 04:47:16;;;;;;;31.83;12.10;;;;;;;1.32;100.00;101115.97;10331542;28;20085;-75
2023/01/16 04:52:17;;;;;;;25.58;12.38;;;;;;;1.56;100.00;101146.88;10332005;28;20045;-78
2023/01/16 04:57:17;;;;;;;30.80;11.82;;;;;;;1.68;100.00;101168.88;10331261;28;20043;-78
2023/01/16 05:02:18;;;;;;;33.88;13.05;;;;;;;1.20;100.00;101087.88;10335327;28;20053;-78
2023/01/16 05:07:19;;;;;;;34.10;12.30;;;;;;;1.96;100.00;101220.47;10339227;28;20494;-78
2023/01/16 05:12:20;;;;;;;32.60;12.52;;;;;;;1.57;100.00;101145.94;10339732;28;20088;-78
2023/01/16 05:17:24;;;;;;;26.13;11.23;;;;;;;2.00;100.00;101206.25;10339724;28;20057;-78
2023/01/16 05:22:24;;;;;;;27.00;11.33;;;;;;;2.10;100.00;101223.13;10339725;28;20049;-78
2023/01/16 05:27:25;;;;;;;24.83;11.65;;;;;;;1.62;100.00;101143.06;10339140;28;20046;-78
2023/01/16 05:32:26;;;;;;;20.58;10.73;;;;;;;1.12;100.00;101045.63;10338907;28;20042;-78
2023/01/16 05:37:26;;;;;;;21.92;11.07;;;;;;;2.20;100.00;101219.00;10338771;28;20046;-78
2023/01/16 05:42:27;;;;;;;24.30;12.15;;;;;;;2.12;100.00;101195.03;10338997;28;20035;-78
2023/01/16 05:47:28;;;;;;;21.30;10.85;;;;;;;2.14;100.00;101180.06;10338606;28;20065;-78
2023/01/16 05:52:29;;;;;;;24.67;11.02;;;;;;;2.15;100.00;101175.66;10338232;28;20081;-77
2023/01/16 05:57:29;;;;;;;23.42;10.40;;;;;;;2.39;100.00;101215.25;10338017;28;20042;-77
2023/01/16 06:02:30;;;;;;;24.42;10.90;;;;;;;2.23;100.00;101225.84;10338134;28;20038;-78
2023/01/16 06:07:31;;;;;;;20.95;10.85;;;;;;;2.09;100.00;101202.22;10337776;28;20042;-77
2023/01/16 06:12:32;;;;;;;22.20;10.48;;;;;;;2.31;100.00;101234.09;10336849;28;20050;-77
2023/01/16 06:17:32;;;;;;;22.15;10.65;;;;;;;2.35;100.00;101227.72;10336489;28;20141;-78
2023/01/16 06:22:33;;;;;;;23.33;10.88;;;;;;;2.32;100.00;101224.44;10336474;28;20046;-77
2023/01/16 06:27:34;;;;;;;26.08;11.02;;;;;;;2.29;100.00;101234.16;10337310;28;20054;-77
2023/01/16 06:32:34;;;;;;;21.40;11.40;;;;;;;1.64;100.00;101110.56;10336846;28;20093;-78
2023/01/16 06:37:35;;;;;;;29.30;10.70;;;;;;;1.97;100.00;101133.06;10335932;28;20042;-77
2023/01/16 06:42:36;;;;;;;21.65;10.82;;;;;;;1.66;100.00;101077.28;10336450;28;20034;-78
2023/01/16 06:47:36;;;;;;;21.80;10.65;;;;;;;2.16;100.00;101162.47;10336787;28;20050;-78
2023/01/16 06:52:39;;;;;;;31.23;11.57;;;;;;;2.42;100.00;101199.34;10336530;28;20046;-78
2023/01/16 06:57:40;;;;;;;27.00;10.82;;;;;;;2.48;100.00;101189.34;10335847;28;20058;-78
2023/01/16 07:02:40;;;;;;;22.30;11.10;;;;;;;2.65;100.00;101224.16;10336238;28;20606;-79
2023/01/16 07:07:41;;;;;;;28.98;12.70;;;;;;;2.03;100.00;101109.97;10335618;28;20105;-79
2023/01/16 07:12:43;;;;;;;35.47;15.40;;;;;;;2.58;100.00;101186.97;10335148;28;20046;-79
2023/01/16 07:23:21;;;;;;;34.25;15.10;;;;;;;2.84;100.00;101205.47;10334783;28;20073;-79
2023/01/16 07:28:22;;;;;;;41.42;14.95;;;;;;;3.00;100.00;101232.44;10333638;28;20061;-79
2023/01/16 07:33:23;;;;;;;36.53;13.35;;;;;;;2.46;100.00;101117.75;10334441;28;20042;-79
2023/01/16 07:38:24;;;;;;;31.52;14.93;;;;;;;2.79;100.00;101178.69;10333709;28;20038;-79
2023/01/16 07:43:25;;;;;;;32.63;13.60;;;;;;;3.09;100.00;101210.84;10333771;28;20046;-79
2023/01/16 07:48:26;;;;;;;32.72;14.95;;;;;;;2.64;100.00;101133.28;10348492;28;20062;-79
2023/01/16 07:53:28;;;;;;;29.23;13.98;;;;;;;1.81;100.00;100989.91;10333002;28;20039;-80
2023/01/16 07:58:30;;;;;;;27.15;12.18;;;;;;;3.05;100.00;101185.75;10348687;28;20035;-78
2023/01/16 08:03:30;;;;;;;29.88;14.23;;;;;;;2.94;100.00;101169.84;10334010;28;20478;-78
2023/01/16 08:08:31;;;;;;;31.83;14.80;;;;;;;3.10;100.00;101198.56;10347630;28;20077;-78
2023/01/16 08:13:40;;;;;;;31.55;13.98;;;;;;;3.10;100.00;101198.56;10332833;28;20056;-79
2023/01/16 08:18:41;;;;;;;29.88;13.27;;;;;;;3.00;100.00;101179.09;10332871;28;20045;-77
2023/01/16 08:23:42;;;;;;;35.13;13.65;;;;;;;1.93;100.00;101001.41;10332244;28;20038;-80
2023/01/16 08:28:43;;;;;;;36.33;14.13;;;;;;;2.07;100.00;101031.16;10332890;28;20482;-78
2023/01/16 08:33:43;;;;;;;33.78;16.02;;;;;;;2.90;100.00;101177.06;10332371;28;20045;-78
2023/01/16 08:38:44;;;;;;;36.72;15.27;;;;;;;2.88;100.00;101163.19;10332374;28;20049;-78
2023/01/16 08:54:30;;;;;;;40.38;16.67;;;;;;;2.99;100.00;101102.13;10412286;28;20095;-79
2023/01/16 08:59:33;;;;;;;39.10;14.77;;;;;;;3.12;100.00;101107.44;10413528;28;20382;-78
2023/01/16 09:04:35;;;;;;;31.45;14.15;;;;;;;3.04;100.00;101086.91;10412510;28;20042;-78
2023/01/16 09:09:36;;;;;;;32.50;14.13;;;;;;;3.40;100.00;101132.69;10412774;28;20047;-78
2023/01/16 09:14:37;;;;;;;36.20;14.57;;;;;;;3.36;100.00;101104.94;10395226;28;20034;-78
2023/01/16 09:19:37;;;;;;;34.90;14.63;;;;;;;2.73;100.00;100983.16;10411937;28;20153;-79
2023/01/16 09:24:39;;;;;;;44.75;15.30;;;;;;;3.68;100.00;101115.91;10412704;28;20049;-80
2023/01/16 09:29:41;;;;;;;37.22;15.30;;;;;;;3.79;100.00;101104.66;10412775;28;20038;-79
2023/01/16 09:34:41;;;;;;;34.30;14.90;;;;;;;3.61;100.00;101057.66;10412831;28;20044;-78
2023/01/16 09:39:42;;;;;;;29.15;13.52;;;;;;;3.80;100.00;101101.06;10412191;28;20516;-78
2023/01/16 09:44:45;;;;;;;36.10;16.02;;;;;;;3.77;100.00;101093.41;10411853;28;20057;-79
2023/01/16 09:49:54;;;;;;;28.25;14.70;;;;;;;3.48;98.73;101048.13;10415019;28;20048;-78
2023/01/16 10:00:21;;;;;;;36.85;16.77;;;;;;;3.20;98.95;100976.47;10419906;28;20037;-78
2023/01/16 10:05:28;;;;;;;43.78;16.73;;;;;;;3.13;98.28;100959.47;10419166;28;20107;-78
2023/01/16 10:10:43;;;;;;;30.65;15.73;;;;;;;3.50;98.04;101022.56;10418389;28;20041;-78
2023/01/16 10:15:52;;;;;;;41.40;16.38;;;;;;;3.72;97.98;101056.09;10418141;28;20512;-78
2023/01/16 10:21:50;;;;;;;37.75;16.27;;;;;;;3.90;97.28;101062.69;10418596;28;20049;-81
2023/01/16 10:27:03;;;;;;;43.17;16.60;;;;;;;3.91;97.48;101082.78;10251928;29;20122;-79
2023/01/16 10:32:19;;;;;;;37.80;16.10;;;;;;;4.01;97.66;101073.31;10397547;28;20103;-78
2023/01/16 10:37:22;;;;;;;37.63;14.77;;;;;;;3.90;97.28;101057.44;10417994;28;20033;-79
2023/01/16 10:53:11;;;;;;;38.47;16.15;;;;;;;3.99;95.95;101058.59;10417497;28;20045;-81
2023/01/16 10:58:24;;;;;;;41.42;17.33;;;;;;;3.99;95.61;101058.59;10416928;28;20045;-80
2023/01/16 11:03:36;;;;;;;33.58;16.33;;;;;;;4.07;95.55;101045.75;10416809;28;20100;-79
2023/01/16 11:08:37;;;;;;;40.85;17.35;;;;;;;3.89;94.82;101025.06;10416891;28;20587;-79
2023/01/16 11:19:14;;;;;;;42.92;16.10;;;;;;;3.04;94.05;100890.06;10415773;28;20436;-81
2023/01/16 11:24:19;;;;;;;42.13;16.33;;;;;;;3.72;94.57;101017.53;10416117;28;20048;-80
2023/01/16 11:29:25;;;;;;;30.50;16.35;;;;;;;3.95;94.12;101059.75;10415072;28;20103;-81
2023/01/16 11:34:28;;;;;;;39.75;17.30;;;;;;;3.02;94.12;100901.59;10415161;28;20107;-80
2023/01/16 11:39:33;;;;;;;44.25;16.75;;;;;;;3.90;94.48;101033.78;10414882;28;20037;-81
2023/01/16 11:49:54;;;;;;;39.90;16.58;;;;;;;3.86;94.54;101024.44;10414706;28;19968;-81
2023/01/16 11:54:56;;;;;;;46.38;16.95;;;;;;;3.47;93.97;100975.50;10414710;28;20049;-80
2023/01/16 12:00:05;;;;;;;42.10;18.15;;;;;;;4.00;94.01;101068.97;10414670;28;20037;-80
2023/01/16 12:11:19;;;;;;;41.17;17.98;;;;;;;3.82;93.54;101059.75;10384876;28;20052;-80
2023/01/16 12:16:38;;;;;;;33.33;16.25;;;;;;;3.82;94.11;101072.91;10393021;28;20084;-81
2023/01/16 12:21:49;;;;;;;36.20;16.88;;;;;;;3.22;93.47;100985.09;10408892;28;20052;-80
2023/01/16 12:27:07;;;;;;;37.10;16.33;;;;;;;3.26;93.67;100994.44;10413374;28;20076;-80
2023/01/16 12:32:15;;;;;;;41.72;18.60;;;;;;;3.65;93.58;101067.03;10414184;28;20123;-79
2023/01/16 12:37:27;;;;;;;34.70;17.30;;;;;;;3.71;93.38;101075.44;10408044;28;20069;-78
2023/01/16 12:48:30;;;;;;;40.08;18.35;;;;;;;3.63;93.95;101082.06;10369254;28;20060;-77
2023/01/16 12:53:51;;;;;;;35.53;17.80;;;;;;;3.64;94.23;101088.97;10372206;28;20125;-77
2023/01/16 12:59:04;;;;;;;33.22;16.92;;;;;;;3.43;93.72;101058.94;10371406;28;20054;-75
2023/01/16 13:04:07;;;;;;;39.33;16.83;;;;;;;3.04;93.46;101016.03;10371670;28;20458;-74
2023/01/16 13:09:23;;;;;;;37.93;16.23;;;;;;;3.59;93.92;101106.88;10401765;28;20045;-75
2023/01/16 13:14:25;;;;;;;38.67;16.75;;;;;;;2.85;94.05;101003.31;10384825;28;20044;-75
2023/01/16 13:19:29;;;;;;;39.17;17.33;;;;;;;3.44;93.87;101100.03;10405063;28;20037;-73
2023/01/16 13:24:34;;;;;;;35.23;16.93;;;;;;;3.10;94.33;101041.88;10413455;28;20037;-73
2023/01/16 13:29:46;;;;;;;39.88;17.48;;;;;;;2.67;94.13;100970.44;10414777;28;20072;-73
2023/01/16 13:34:52;;;;;;;38.50;16.33;;;;;;;3.28;94.70;101083.59;10412769;28;20037;-73
2023/01/16 13:40:09;;;;;;;40.88;17.98;;;;;;;3.43;94.70;101109.69;10412358;28;20493;-73
2023/01/16 13:45:49;;;;;;;33.28;17.48;;;;;;;3.41;94.62;101119.47;10389413;28;20089;-73
2023/01/16 13:50:59;;;;;;;28.90;16.27;;;;;;;2.69;94.50;100994.78;10391168;28;20042;-73
2023/01/16 13:56:24;;;;;;;45.83;17.73;;;;;;;3.38;95.00;101116.19;10420495;28;20041;-74
2023/01/16 14:01:51;;;;;;;36.75;16.83;;;;;;;3.26;94.47;101114.38;10413864;28;20412;-76
2023/01/16 14:12:12;;;;;;;36.63;17.67;;;;;;;3.28;94.88;101117.75;10418971;28;20055;-75
2023/01/16 14:17:15;;;;;;;37.80;17.65;;;;;;;2.54;95.17;101024.63;10418233;28;20109;-74
2023/01/16 14:27:28;;;;;;;37.33;18.17;;;;;;;2.23;95.38;101047.59;10418629;28;20564;-75
2023/01/16 14:32:31;;;;;;;38.60;18.30;;;;;;;2.38;96.34;101106.06;10418250;28;20056;-76
2023/01/16 14:37:39;;;;;;;34.47;17.80;;;;;;;2.20;96.48;101118.56;10416566;28;20047;-76
2023/01/16 14:59:12;;;;;;;40.70;19.67;;;;;;;1.68;97.65;101159.25;10417253;28;20045;-81
2023/01/16 15:04:16;;;;;;;56.50;20.38;;;;;;;1.70;98.24;101164.38;10367880;28;20115;-78
2023/01/16 15:09:19;;;;;;;29.83;17.50;;;;;;;1.41;97.52;101100.63;10375730;28;20049;-78
2023/01/16 15:14:29;;;;;;;42.63;18.63;;;;;;;1.87;97.55;101166.00;10374888;28;20129;-78
2023/01/16 15:24:59;;;;;;;39.47;19.02;;;;;;;1.36;97.31;101088.66;10375043;28;20034;-78
2023/01/16 15:30:05;;;;;;;35.55;18.35;;;;;;;1.96;97.46;101175.94;10374777;28;20042;-78
2023/01/16 15:35:16;;;;;;;31.92;17.35;;;;;;;2.04;97.52;101181.56;10386521;28;20042;-76
2023/01/16 15:40:29;;;;;;;38.10;17.17;;;;;;;2.15;97.37;101188.75;10377016;28;20052;-79
2023/01/16 15:51:09;;;;;;;40.90;19.38;;;;;;;1.74;96.76;101100.41;10373799;28;20044;-79
2023/01/16 15:56:22;;;;;;;36.83;19.05;;;;;;;1.67;96.65;101089.44;10374660;28;20133;-79
2023/01/16 16:01:33;;;;;;;40.85;20.52;;;;;;;1.86;96.22;101111.94;10374775;28;20041;-79
2023/01/16 16:06:38;;;;;;;37.90;20.27;;;;;;;2.08;96.55;101151.59;10373471;28;20057;-78
2023/01/16 16:11:51;;;;;;;44.60;21.95;;;;;;;2.39;96.67;101195.13;10381501;28;20038;-78
2023/01/16 16:27:43;;;;;;;38.65;20.15;;;;;;;2.35;96.40;101179.69;10401406;28;20048;-77
2023/01/16 16:32:44;;;;;;;44.25;20.65;;;;;;;2.00;96.32;101127.63;10409685;28;20047;-77
2023/01/16 16:37:45;;;;;;;42.22;19.13;;;;;;;2.28;96.93;101185.31;10389875;28;20039;-77
2023/01/16 16:42:51;;;;;;;43.28;21.02;;;;;;;2.35;96.73;101216.41;10407581;28;20037;-78
2023/01/16 16:48:13;;;;;;;41.83;20.80;;;;;;;2.37;96.45;101201.41;10405036;28;20064;-78
2023/01/16 16:53:25;;;;;;;41.13;20.73;;;;;;;2.25;96.66;101195.97;10406647;28;20095;-77
2023/01/16 16:58:27;;;;;;;43.63;20.80;;;;;;;2.05;96.38;101183.25;10388399;28;20083;-77
2023/01/16 17:03:30;;;;;;;40.28;19.08;;;;;;;2.14;96.45;101198.41;10404887;28;20033;-77
2023/01/16 17:08:31;;;;;;;41.10;19.92;;;;;;;2.26;96.48;101217.78;10403742;28;20498;-77
2023/01/16 17:13:32;;;;;;;48.97;19.60;;;;;;;1.90;96.23;101156.19;10370564;28;20085;-77
2023/01/16 17:18:33;;;;;;;46.80;21.50;;;;;;;2.26;96.21;101212.53;10372007;28;20042;-77
2023/01/16 17:23:33;;;;;;;44.53;20.10;;;;;;;1.78;96.14;101138.56;10372184;28;20061;-77
2023/01/16 17:28:34;;;;;;;36.90;20.33;;;;;;;1.96;96.00;101152.34;10371824;28;20136;-77
2023/01/16 17:33:35;;;;;;;51.08;21.15;;;;;;;1.63;96.19;101101.03;10372186;28;20493;-77
2023/01/16 17:38:38;;;;;;;46.42;22.50;;;;;;;2.24;96.30;101212.66;10371591;28;20131;-77
2023/01/16 17:48:58;;;;;;;41.53;20.75;;;;;;;1.79;96.26;101130.59;10371309;28;20132;-77
2023/01/16 17:53:59;;;;;;;44.70;21.15;;;;;;;2.32;96.68;101203.47;10371116;28;20070;-77
2023/01/16 17:59:08;;;;;;;49.28;22.23;;;;;;;1.97;96.68;101144.38;10407324;28;20081;-78
2023/01/16 18:04:18;;;;;;;44.03;20.40;;;;;;;2.27;96.81;101194.13;10409126;28;20531;-78
2023/01/16 18:09:19;;;;;;;43.92;20.67;;;;;;;2.01;96.60;101153.75;10385292;28;20044;-78
2023/01/16 18:19:39;;;;;;;39.45;20.98;;;;;;;2.32;96.97;101196.44;10377288;28;20053;-78
2023/01/16 18:24:41;;;;;;;39.55;19.00;;;;;;;2.36;97.02;101202.34;10377709;28;20049;-78
2023/01/16 18:29:43;;;;;;;48.63;20.58;;;;;;;2.19;97.03;101179.78;10377757;28;20125;-77
2023/01/16 18:34:45;;;;;;;45.00;22.23;;;;;;;1.72;96.96;101097.88;10404179;28;20404;-78
2023/01/16 19:06:24;;;;;;;51.28;23.33;;;;;;;2.22;96.97;101216.31;10384729;28;20049;-77
2023/01/16 19:11:25;;;;;;;45.83;20.98;;;;;;;1.87;96.90;101147.66;10416231;28;20588;-77
2023/01/16 19:16:44;;;;;;;42.67;20.70;;;;;;;1.84;97.17;101146.06;10416775;28;20453;-77
2023/01/16 19:21:45;;;;;;;35.55;18.80;;;;;;;2.14;97.01;101203.66;10416378;28;20128;-77
2023/01/16 19:26:45;;;;;;;46.78;23.63;;;;;;;2.26;97.14;101218.63;10409242;28;20156;-77
2023/01/16 19:31:47;;;;;;;57.80;26.00;;;;;;;1.94;97.21;101148.97;10375339;28;20044;-77
2023/01/16 19:36:47;;;;;;;50.95;24.35;;;;;;;2.32;97.12;101219.19;10374271;28;20061;-77
2023/01/16 19:47:08;;;;;;;60.30;27.25;;;;;;;2.05;96.95;101180.63;10374699;28;20057;-77
2023/01/16 19:52:10;;;;;;;49.80;24.85;;;;;;;2.29;96.67;101217.59;10375131;28;20066;-77
2023/01/16 19:57:11;;;;;;;47.75;24.13;;;;;;;2.11;96.48;101192.50;10374100;28;20061;-76
2023/01/16 20:02:12;;;;;;;54.08;25.15;;;;;;;1.94;96.82;101167.31;10374575;28;20042;-76
2023/01/16 20:07:14;;;;;;;59.33;24.52;;;;;;;2.23;96.82;101217.97;10373005;28;20429;-76
2023/01/16 20:12:24;;;;;;;48.95;22.42;;;;;;;2.21;96.76;101214.59;10355538;28;20437;-76
2023/01/16 20:17:33;;;;;;;67.72;26.00;;;;;;;2.07;96.77;101199.72;10373673;28;20053;-76
2023/01/16 20:22:34;;;;;;;58.95;26.33;;;;;;;2.07;96.81;101197.09;10371586;28;20117;-76
2023/01/16 20:27:37;;;;;;;49.65;24.17;;;;;;;2.05;96.63;101191.09;10373129;28;20132;-76
2023/01/16 20:32:38;;;;;;;62.92;27.48;;;;;;;2.12;96.70;101199.44;10373235;28;20441;-77
2023/01/16 20:37:39;;;;;;;64.90;28.30;;;;;;;2.20;96.88;101213.75;10372250;28;20041;-76
2023/01/16 20:47:58;;;;;;;64.50;29.08;;;;;;;2.12;96.55;101191.56;10372895;28;21152;-76
2023/01/16 20:52:59;;;;;;;63.70;27.33;;;;;;;2.11;96.78;101188.09;10370760;28;20057;-75
2023/01/16 20:58:00;;;;;;;47.58;22.25;;;;;;;2.25;96.38;101211.72;10372000;28;20092;-76
2023/01/16 21:03:02;;;;;;;64.68;27.25;;;;;;;2.04;96.39;101176.31;10372041;28;20486;-76
2023/01/16 21:08:04;;;;;;;47.45;25.20;;;;;;;2.22;96.62;101206.66;10382315;28;20180;-76
2023/01/16 21:23:44;;;;;;;68.35;29.02;;;;;;;1.82;96.87;101176.75;10371421;28;20037;-76
2023/01/16 21:28:45;;;;;;;63.10;26.50;;;;;;;2.13;96.90;101215.06;10370562;28;20049;-76
2023/01/16 21:33:45;;;;;;;65.03;28.15;;;;;;;1.12;96.45;101040.38;10372516;28;20097;-75
2023/01/16 21:38:46;;;;;;;60.35;26.60;;;;;;;2.07;96.79;101209.38;10370965;28;20046;-76
2023/01/16 21:49:06;;;;;;;68.25;30.35;;;;;;;2.02;96.81;101201.75;10338437;28;20100;-76
2023/01/16 21:54:07;;;;;;;65.40;28.50;;;;;;;1.98;96.90;101187.16;10338281;28;20129;-76
2023/01/16 21:59:08;;;;;;;68.30;29.20;;;;;;;2.09;97.08;101210.94;10337763;28;20490;-76
2023/01/16 22:04:09;;;;;;;67.03;29.65;;;;;;;1.88;96.75;101165.91;10337935;28;20050;-76
2023/01/16 22:09:10;;;;;;;67.30;28.27;;;;;;;1.66;96.48;101142.78;10337037;28;20483;-76
2023/01/16 22:19:32;;;;;;;59.30;27.83;;;;;;;2.00;96.35;101177.41;10337514;28;20631;-76
2023/01/16 22:24:35;;;;;;;61.53;28.17;;;;;;;1.94;96.34;101183.88;10337332;28;20052;-76
2023/01/16 22:29:36;;;;;;;63.47;28.63;;;;;;;1.28;95.97;101067.31;10336500;28;20073;-76
2023/01/16 22:34:36;;;;;;;65.47;28.48;;;;;;;2.03;96.54;101206.06;10342074;28;20069;-76
2023/01/16 22:39:37;;;;;;;84.35;31.23;;;;;;;1.61;96.70;101136.94;10341503;28;20074;-76
2023/01/16 22:49:59;;;;;;;67.10;29.45;;;;;;;1.99;96.90;101215.06;10376839;28;20053;-76
2023/01/16 22:54:59;;;;;;;82.78;31.33;;;;;;;1.81;96.70;101199.47;10376909;28;20045;-76
2023/01/16 23:00:02;;;;;;;76.70;31.25;;;;;;;1.79;96.50;101192.66;10375730;28;20037;-76
2023/01/16 23:05:04;;;;;;;67.50;29.40;;;;;;;1.66;96.47;101171.56;10375546;28;20049;-76
2023/01/16 23:10:05;;;;;;;65.22;29.63;;;;;;;1.80;96.55;101181.25;10375493;28;20048;-76
2023/01/16 23:15:08;;;;;;;69.15;28.55;;;;;;;1.65;95.95;101166.44;10375500;28;20045;-76
2023/01/16 23:20:10;;;;;;;65.35;30.13;;;;;;;2.03;96.54;101233.13;10358581;28;20112;-76
2023/01/16 23:25:10;;;;;;;75.45;32.35;;;;;;;1.81;96.40;101188.16;10375417;28;20038;-76
2023/01/16 23:30:11;;;;;;;115.13;50.72;;;;;;;2.06;96.84;101229.47;10375302;28;20413;-76
2023/01/16 23:35:12;;;;;;;91.90;39.33;;;;;;;1.56;96.35;101142.47;10375262;28;20525;-76
2023/01/16 23:40:13;;;;;;;65.55;33.05;;;;;;;1.55;96.65;101130.28;10374823;28;20072;-76
2023/01/16 23:45:14;;;;;;;75.20;31.02;;;;;;;2.23;96.57;101225.84;10384918;28;20120;-76
2023/01/16 23:50:15;;;;;;;63.67;26.33;;;;;;;1.88;96.13;101160.66;10375033;28;20049;-75
2023/01/16 23:55:16;;;;;;;67.43;28.80;;;;;;;2.02;96.20;101192.13;10374232;28;20050;-75
